Time;durP1;ratioP1;P1;durP2;ratioP2;P2;SDS_P1;SDS_P2;PMS_P1;PMS_P2;Temp;Humidity;BMP_temperature;BMP_pressure;BME280_temperature;BME280_humidity;BME280_pressure;Samples;Min_cycle;Max_cycle;Signal;HPM_P1;HPM_P2
2021/01/21 00:04:04;;;;;;;32.63;13.27;;;;;;;3.28;74.17;99456.50;4876499;60;21182;-87
2021/01/21 00:09:10;;;;;;;24.50;10.30;;;;;;;3.30;74.38;99449.41;4873328;60;21132;-87
2021/01/21 00:14:16;;;;;;;22.67;8.97;;;;;;;3.27;74.30;99449.59;4845195;60;21184;-87
2021/01/21 00:19:21;;;;;;;24.70;9.47;;;;;;;3.27;74.35;99454.82;4938654;59;21138;-86
2021/01/21 00:24:27;;;;;;;28.13;11.87;;;;;;;3.30;74.53;99453.33;4878608;60;21162;-87
2021/01/21 00:29:32;;;;;;;27.43;11.47;;;;;;;3.33;74.74;99447.91;4954961;59;21753;-87
2021/01/21 00:34:38;;;;;;;28.30;11.23;;;;;;;3.32;74.60;99439.69;4949487;59;21154;-87
2021/01/21 00:39:43;;;;;;;29.10;11.60;;;;;;;3.39;74.65;99439.17;4956470;59;21149;-87
2021/01/21 00:44:49;;;;;;;31.23;13.37;;;;;;;3.42;74.69;99442.91;4940335;59;21196;-87
2021/01/21 00:49:54;;;;;;;21.07;9.30;;;;;;;3.43;74.90;99435.44;4931366;59;21141;-87
2021/01/21 00:55:00;;;;;;;23.30;9.17;;;;;;;3.49;74.37;99431.59;4938778;59;21165;-86
2021/01/21 01:00:09;;;;;;;14.97;6.70;;;;;;;3.54;74.33;99428.19;4937376;59;21196;-86
2021/01/21 01:05:16;;;;;;;18.77;8.00;;;;;;;3.59;73.70;99421.35;4887534;60;21193;-87
2021/01/21 01:10:25;;;;;;;40.87;15.00;;;;;;;3.68;73.98;99420.26;4942599;59;21490;-86
2021/01/21 01:15:35;;;;;;;23.00;8.67;;;;;;;3.72;74.24;99416.51;4950034;58;21205;-87
2021/01/21 01:20:41;;;;;;;32.83;12.00;;;;;;;3.76;74.03;99415.84;4876501;60;21156;-87
2021/01/21 01:25:47;;;;;;;26.73;11.13;;;;;;;3.82;74.23;99413.63;4940798;59;21176;-88
2021/01/21 01:30:54;;;;;;;29.27;11.00;;;;;;;3.85;73.72;99416.52;4955113;59;21175;-87
2021/01/21 01:36:00;;;;;;;19.90;9.37;;;;;;;3.84;73.72;99406.99;4935703;59;21213;-87
2021/01/21 01:41:06;;;;;;;26.47;11.67;;;;;;;3.84;73.43;99405.22;4949363;59;21141;-87
2021/01/21 01:46:12;;;;;;;23.60;10.10;;;;;;;3.82;73.51;99416.72;4938273;59;21156;-87
2021/01/21 01:51:18;;;;;;;20.47;7.37;;;;;;;3.77;73.11;99410.98;4930710;59;21162;-87
2021/01/21 01:56:25;;;;;;;19.93;7.83;;;;;;;3.71;73.09;99411.38;4872965;60;21152;-87
2021/01/21 02:01:34;;;;;;;26.57;9.80;;;;;;;3.69;73.19;99408.86;4950948;59;21126;-87
2021/01/21 02:06:41;;;;;;;27.40;12.17;;;;;;;3.64;73.43;99402.29;4953707;58;21231;-87
2021/01/21 02:12:25;;;;;;;30.67;11.53;;;;;;;3.60;73.75;99405.57;4939616;59;21202;-87
2021/01/21 02:17:45;;;;;;;31.10;12.43;;;;;;;3.59;73.73;99410.89;4888564;60;21176;-87
2021/01/21 02:23:29;;;;;;;27.17;12.10;;;;;;;3.53;73.84;99407.73;4829422;60;21218;-87
2021/01/21 02:29:25;;;;;;;32.50;11.83;;;;;;;3.45;73.88;99408.73;4818289;61;21657;-86
2021/01/21 02:35:02;;;;;;;35.63;12.98;;;;;;;3.46;73.89;99410.88;4859778;61;21224;-88
2021/01/21 02:40:10;;;;;;;35.53;10.67;;;;;;;3.44;74.24;99405.75;4893982;60;21105;-87
2021/01/21 02:45:18;;;;;;;30.77;12.13;;;;;;;3.41;73.90;99402.02;4814977;61;21188;-87
2021/01/21 02:50:25;;;;;;;25.63;9.13;;;;;;;3.37;74.30;99405.77;4822722;61;21522;-87
2021/01/21 02:55:42;;;;;;;38.70;13.87;;;;;;;3.40;74.36;99395.59;4857125;61;21177;-87
2021/01/21 03:00:52;;;;;;;30.50;13.10;;;;;;;3.38;74.42;99383.92;4812749;61;21144;-87
2021/01/21 03:06:02;;;;;;;29.83;11.87;;;;;;;3.37;74.57;99383.55;4817959;61;21184;-87
2021/01/21 03:11:14;;;;;;;24.90;10.70;;;;;;;3.36;74.57;99395.45;4887177;60;21198;-87
2021/01/21 03:16:21;;;;;;;26.67;10.70;;;;;;;3.33;74.51;99387.33;4831504;59;21102;-87
2021/01/21 03:21:27;;;;;;;19.23;8.27;;;;;;;3.35;74.47;99382.84;4853243;61;21164;-87
2021/01/21 03:26:34;;;;;;;25.60;9.97;;;;;;;3.36;74.25;99381.07;4867097;61;21483;-87
2021/01/21 03:31:42;;;;;;;26.57;10.97;;;;;;;3.35;74.04;99379.39;4862062;60;21158;-87
2021/01/21 03:36:48;;;;;;;33.57;12.73;;;;;;;3.34;74.68;99391.63;4861751;61;21243;-87
2021/01/21 03:41:55;;;;;;;25.43;10.50;;;;;;;3.34;74.57;99392.93;4854124;60;21149;-87
2021/01/21 03:47:02;;;;;;;26.03;9.93;;;;;;;3.39;74.50;99382.15;4850908;61;21491;-86
2021/01/21 03:52:24;;;;;;;16.73;7.03;;;;;;;3.43;74.64;99381.02;4861866;61;21146;-87
2021/01/21 03:57:32;;;;;;;18.53;9.77;;;;;;;3.44;74.46;99386.61;4864357;60;21518;-87
2021/01/21 04:02:39;;;;;;;22.43;7.70;;;;;;;3.44;74.63;99379.61;4858865;61;21185;-87
2021/01/21 04:07:46;;;;;;;10.00;4.97;;;;;;;3.50;74.26;99391.45;4866678;60;21489;-87
2021/01/21 04:12:51;;;;;;;21.80;8.30;;;;;;;3.51;74.37;99382.67;4870619;61;21319;-87
2021/01/21 04:17:57;;;;;;;25.50;10.77;;;;;;;3.56;74.46;99377.95;4868194;59;21241;-87
2021/01/21 04:23:04;;;;;;;18.27;8.03;;;;;;;3.61;74.32;99368.50;4946090;59;21200;-86
2021/01/21 04:28:09;;;;;;;11.97;5.53;;;;;;;3.63;74.10;99366.16;4932627;59;21172;-87
2021/01/21 04:33:17;;;;;;;18.67;6.27;;;;;;;3.63;73.74;99363.54;4875966;60;21486;-87
2021/01/21 04:38:24;;;;;;;12.70;6.63;;;;;;;3.72;74.34;99362.06;4941164;59;21157;-87
2021/01/21 04:43:34;;;;;;;11.37;6.10;;;;;;;3.76;74.49;99364.38;4942861;59;21149;-87
2021/01/21 04:48:42;;;;;;;13.47;7.83;;;;;;;3.77;74.07;99355.59;4875361;60;21148;-87
2021/01/21 04:53:54;;;;;;;20.13;8.97;;;;;;;3.83;73.72;99345.16;4946420;58;21172;-87
2021/01/21 04:59:03;;;;;;;22.47;10.83;;;;;;;3.88;73.71;99340.00;4953247;59;21153;-87
2021/01/21 05:04:18;;;;;;;18.97;9.03;;;;;;;3.93;73.84;99340.16;4863843;60;21480;-87
2021/01/21 05:09:32;;;;;;;21.57;9.27;;;;;;;3.97;73.58;99340.32;4941978;59;21149;-87
2021/01/21 05:14:40;;;;;;;22.23;10.73;;;;;;;4.00;73.33;99332.23;4871221;60;21202;-87
2021/01/21 05:20:04;;;;;;;19.23;9.97;;;;;;;3.99;73.13;99339.72;4861599;60;21235;-86
2021/01/21 05:25:10;;;;;;;21.70;10.43;;;;;;;4.00;73.06;99335.69;4807458;61;21524;-87
2021/01/21 05:30:25;;;;;;;30.83;12.30;;;;;;;4.00;72.96;99326.53;4810736;61;21544;-87
2021/01/21 05:35:31;;;;;;;43.07;23.57;;;;;;;4.00;73.15;99332.23;4799660;61;21158;-87
2021/01/21 05:40:38;;;;;;;82.00;34.40;;;;;;;3.99;73.02;99321.41;4809148;61;21747;-87
2021/01/21 05:45:46;;;;;;;32.87;19.50;;;;;;;4.00;72.83;99317.38;4798959;61;21456;-87
2021/01/21 05:50:53;;;;;;;15.57;9.43;;;;;;;4.02;72.62;99312.88;4781002;61;21441;-88
2021/01/21 05:56:00;;;;;;;27.37;11.53;;;;;;;4.05;72.41;99296.13;4796879;61;21172;-87
2021/01/21 06:01:09;;;;;;;21.53;8.53;;;;;;;4.08;72.59;99294.62;4885574;60;21126;-87
2021/01/21 06:06:22;;;;;;;31.20;14.80;;;;;;;4.08;72.37;99284.98;4749944;61;21491;-87
2021/01/21 06:11:31;;;;;;;29.50;12.63;;;;;;;4.09;72.45;99285.36;4881052;60;21184;-87
2021/01/21 06:16:39;;;;;;;15.33;7.87;;;;;;;4.13;72.15;99280.72;4846951;60;21190;-86
2021/01/21 06:21:48;;;;;;;18.50;6.83;;;;;;;4.13;72.01;99282.02;4874012;60;21160;-86
2021/01/21 06:26:58;;;;;;;14.67;6.93;;;;;;;4.17;71.79;99289.56;4933099;59;21181;-87
2021/01/21 06:32:08;;;;;;;16.00;8.30;;;;;;;4.21;72.03;99294.95;4937001;59;21090;-86
2021/01/21 06:37:21;;;;;;;18.67;9.27;;;;;;;4.21;71.85;99294.95;4945842;59;21176;-89
2021/01/21 06:42:44;;;;;;;23.33;11.07;;;;;;;4.21;71.38;99296.25;4877119;60;21586;-90
2021/01/21 06:47:49;;;;;;;19.47;9.20;;;;;;;4.21;71.53;99304.58;4951106;59;21157;-89
2021/01/21 06:52:58;;;;;;;36.07;13.10;;;;;;;4.20;71.76;99307.66;4867781;59;21443;-90
2021/01/21 06:58:07;;;;;;;48.57;19.30;;;;;;;4.24;71.54;99310.91;4872264;60;21196;-89
2021/01/21 07:03:28;;;;;;;37.60;16.47;;;;;;;4.22;72.21;99305.78;4873794;60;21540;-89
2021/01/21 07:08:38;;;;;;;45.50;16.70;;;;;;;4.22;72.22;99305.78;4797041;61;21471;-89
2021/01/21 07:13:44;;;;;;;40.83;19.90;;;;;;;4.24;71.99;99319.59;4922557;59;21157;-90
2021/01/21 07:18:50;;;;;;;33.10;15.53;;;;;;;4.23;72.20;99309.23;4873852;59;21169;-90
2021/01/21 07:23:58;;;;;;;30.20;15.03;;;;;;;4.27;72.09;99299.39;4834829;60;21230;-89
2021/01/21 07:29:19;;;;;;;26.40;10.87;;;;;;;4.27;71.91;99301.54;4896990;60;21172;-89
2021/01/21 07:34:27;;;;;;;49.97;22.57;;;;;;;4.27;71.67;99304.16;4767573;61;21251;-90
2021/01/21 07:39:54;;;;;;;25.70;12.87;;;;;;;4.29;71.98;99302.23;4865271;60;21186;-89
2021/01/21 07:45:04;;;;;;;27.97;11.37;;;;;;;4.28;72.08;99303.18;4867112;60;21235;-88
2021/01/21 07:50:30;;;;;;;20.97;9.97;;;;;;;4.33;72.23;99297.63;4875231;60;21179;-88
2021/01/21 07:55:39;;;;;;;20.50;9.33;;;;;;;4.42;71.45;99296.98;4784527;61;21222;-88
2021/01/21 08:00:47;;;;;;;32.57;13.83;;;;;;;4.46;72.00;99287.95;4882253;60;21101;-88
2021/01/21 08:06:03;;;;;;;21.73;10.13;;;;;;;4.45;71.98;99291.03;4869008;60;21101;-88
2021/01/21 08:11:13;;;;;;;20.93;11.40;;;;;;;4.51;71.85;99288.46;4864367;60;21115;-88
2021/01/21 08:16:19;;;;;;;19.57;8.90;;;;;;;4.54;71.60;99296.09;4851941;60;21108;-89
2021/01/21 08:21:29;;;;;;;26.03;11.07;;;;;;;4.55;71.77;99286.83;4857018;60;21205;-89
2021/01/21 08:31:49;;;;;;;83.27;22.83;;;;;;;4.63;70.92;99299.82;5356424;54;21321;-89
2021/01/21 08:37:03;;;;;;;30.40;13.53;;;;;;;4.61;71.91;99302.55;5266568;56;21081;-90
2021/01/21 08:42:10;;;;;;;40.43;12.53;;;;;;;4.66;71.74;99304.84;5274371;56;21487;-90
2021/01/21 08:47:16;;;;;;;53.57;19.97;;;;;;;4.67;71.48;99327.47;5266146;56;21200;-91
2021/01/21 08:52:21;;;;;;;93.87;25.70;;;;;;;4.69;71.35;99330.34;5271939;56;21152;-90
2021/01/21 08:57:27;;;;;;;73.47;17.67;;;;;;;4.71;71.66;99324.52;5270371;56;21176;-90
2021/01/21 09:02:43;;;;;;;30.03;11.53;;;;;;;4.72;71.69;99322.27;5269583;55;21204;-91
2021/01/21 09:07:52;;;;;;;57.23;20.77;;;;;;;4.77;71.70;99329.77;5269481;55;21069;-89
2021/01/21 09:13:04;;;;;;;21.67;10.07;;;;;;;4.78;71.47;99330.13;5266125;56;21160;-90
2021/01/21 09:18:09;;;;;;;20.37;10.50;;;;;;;4.83;71.52;99320.17;5278349;55;21167;-91
2021/01/21 09:23:22;;;;;;;29.20;13.13;;;;;;;4.86;71.57;99321.27;5265437;56;21175;-91
2021/01/21 09:28:27;;;;;;;22.67;11.70;;;;;;;4.87;71.75;99310.67;5241259;56;21193;-92
2021/01/21 09:33:33;;;;;;;18.07;9.07;;;;;;;4.95;71.62;99295.21;5206332;56;21148;-91
2021/01/21 09:38:38;;;;;;;21.37;9.93;;;;;;;5.03;71.38;99302.52;5209735;56;21244;-91
2021/01/21 09:43:44;;;;;;;36.17;14.50;;;;;;;5.08;71.41;99307.39;5202445;56;21753;-92
2021/01/21 09:48:50;;;;;;;18.20;9.70;;;;;;;5.15;70.62;99294.21;5200637;56;21160;-91
2021/01/21 09:53:55;;;;;;;31.67;12.73;;;;;;;5.22;70.63;99288.85;5203986;56;21133;-92
2021/01/21 09:59:01;;;;;;;17.97;8.83;;;;;;;5.27;71.16;99301.15;5204851;56;21427;-92
2021/01/21 10:04:15;;;;;;;24.77;11.90;;;;;;;5.30;70.87;99289.97;5212094;56;21149;-91
2021/01/21 10:09:16;;;;;;;27.63;13.10;;;;;;;5.38;70.32;99283.29;5212296;56;21151;-91
2021/01/21 10:14:22;;;;;;;11.43;7.17;;;;;;;5.43;69.73;99278.06;5207960;56;21116;-90
2021/01/21 10:19:28;;;;;;;31.03;14.30;;;;;;;5.49;70.11;99269.74;5206865;56;21054;-91
2021/01/21 10:24:35;;;;;;;30.20;14.37;;;;;;;5.50;70.36;99253.03;5208274;56;21186;-91
2021/01/21 10:29:40;;;;;;;53.63;25.37;;;;;;;5.58;70.45;99247.21;5213461;56;21149;-91
2021/01/21 10:34:46;;;;;;;18.00;8.57;;;;;;;5.64;70.51;99248.89;5212995;56;21535;-92
2021/01/21 10:39:52;;;;;;;25.67;12.60;;;;;;;5.69;69.77;99250.30;5206158;56;21136;-91
2021/01/21 10:44:58;;;;;;;25.67;10.47;;;;;;;5.69;70.04;99247.20;5211075;56;21075;-91
2021/01/21 10:50:04;;;;;;;19.93;10.07;;;;;;;5.73;69.65;99251.74;5207080;56;21482;-91
2021/01/21 10:55:11;;;;;;;19.70;11.10;;;;;;;5.77;69.99;99254.02;5213079;56;21127;-91
2021/01/21 11:00:19;;;;;;;18.97;10.27;;;;;;;5.78;69.72;99240.42;5202113;56;21144;-91
2021/01/21 11:05:25;;;;;;;16.47;7.00;;;;;;;5.83;70.29;99244.34;5215599;56;21481;-90
2021/01/21 11:10:32;;;;;;;17.50;8.13;;;;;;;5.92;69.56;99237.10;5221220;56;21451;-91
2021/01/21 11:15:38;;;;;;;18.30;11.33;;;;;;;6.03;69.68;99241.97;5209162;56;21163;-91
2021/01/21 11:20:45;;;;;;;25.87;11.37;;;;;;;6.09;69.08;99223.96;5209689;56;21240;-92
2021/01/21 11:25:51;;;;;;;48.33;20.90;;;;;;;6.14;68.69;99219.16;5210640;56;21589;-91
2021/01/21 11:30:56;;;;;;;26.27;11.30;;;;;;;6.20;68.35;99213.91;5212003;56;21135;-92
2021/01/21 11:36:02;;;;;;;17.77;9.23;;;;;;;6.21;68.39;99207.22;5213812;56;21159;-91
2021/01/21 11:41:07;;;;;;;31.23;15.03;;;;;;;6.24;67.71;99210.08;5202195;56;21479;-92
2021/01/21 11:46:13;;;;;;;17.67;7.57;;;;;;;6.27;68.66;99190.95;5208640;56;21112;-91
2021/01/21 11:51:19;;;;;;;17.53;9.10;;;;;;;6.28;67.25;99184.75;5209575;56;21121;-91
2021/01/21 11:56:25;;;;;;;20.03;10.73;;;;;;;6.29;68.38;99183.80;5209732;56;21239;-92
2021/01/21 12:01:31;;;;;;;19.73;10.40;;;;;;;6.29;68.25;99188.20;5213826;56;21198;-90
2021/01/21 12:06:36;;;;;;;36.33;16.40;;;;;;;6.28;68.30;99175.55;5218210;56;21090;-91
2021/01/21 12:11:42;;;;;;;23.43;11.33;;;;;;;6.28;68.66;99176.88;5204371;56;21164;-90
2021/01/21 12:16:47;;;;;;;19.73;9.37;;;;;;;6.31;68.22;99176.63;5206171;56;21179;-91
2021/01/21 12:21:53;;;;;;;28.80;11.63;;;;;;;6.33;67.69;99173.88;5221731;56;21628;-90
2021/01/21 12:26:59;;;;;;;26.03;11.40;;;;;;;6.45;68.51;99164.16;5207723;56;21195;-85
2021/01/21 12:32:05;;;;;;;21.73;10.77;;;;;;;6.53;68.12;99170.95;5097580;56;42870;-90
2021/01/21 12:37:11;;;;;;;84.87;38.67;;;;;;;6.58;68.01;99164.81;5071863;57;21509;-92
2021/01/21 12:42:16;;;;;;;200.80;96.50;;;;;;;6.64;68.09;99144.61;5059682;58;21120;-92
2021/01/21 12:47:22;;;;;;;30.37;11.30;;;;;;;6.72;67.48;99154.02;5066541;58;21158;-92
2021/01/21 12:52:28;;;;;;;19.33;10.57;;;;;;;6.74;66.27;99153.38;5068663;58;21222;-93
2021/01/21 12:57:33;;;;;;;18.33;9.37;;;;;;;6.74;67.04;99152.06;5066930;58;21252;-91
2021/01/21 13:02:40;;;;;;;24.47;12.90;;;;;;;6.77;67.19;99153.61;4959073;58;21159;-90
2021/01/21 13:07:46;;;;;;;25.23;12.53;;;;;;;6.79;66.93;99142.50;4918352;59;21186;-91
2021/01/21 13:12:52;;;;;;;38.17;18.23;;;;;;;7.10;67.11;99136.31;4958939;58;21170;-91
2021/01/21 13:17:57;;;;;;;26.23;15.47;;;;;;;7.53;66.62;99146.59;4953457;59;21215;-91
2021/01/21 13:23:06;;;;;;;20.33;10.10;;;;;;;7.80;65.28;99145.98;4922884;59;21238;-91
2021/01/21 13:28:10;;;;;;;24.27;13.37;;;;;;;7.77;64.49;99147.59;4915495;59;21174;-91
2021/01/21 13:33:16;;;;;;;36.43;15.07;;;;;;;8.17;64.35;99140.92;4947658;58;21184;-91
2021/01/21 13:38:23;;;;;;;27.10;12.63;;;;;;;7.63;64.13;99123.80;4933763;59;21194;-91
2021/01/21 13:43:29;;;;;;;40.83;15.70;;;;;;;7.63;64.13;99123.80;4937559;59;21115;-92
2021/01/21 13:48:35;;;;;;;37.13;14.37;;;;;;;7.43;64.17;99141.80;4933095;59;21800;-92
2021/01/21 13:53:50;;;;;;;24.37;12.60;;;;;;;7.28;65.39;99145.75;4933016;59;21187;-90
2021/01/21 13:58:58;;;;;;;20.90;11.07;;;;;;;7.16;65.28;99148.12;4908392;59;21144;-91
2021/01/21 14:04:07;;;;;;;52.03;16.30;;;;;;;7.08;65.43;99151.38;4941584;59;21180;-95
2021/01/21 14:09:13;;;;;;;20.13;9.43;;;;;;;7.06;65.23;99159.40;4910284;59;21523;-91
2021/01/21 14:14:20;;;;;;;36.33;14.80;;;;;;;6.99;66.06;99152.17;5015399;58;21070;-91
2021/01/21 14:19:26;;;;;;;32.97;18.13;;;;;;;6.93;65.30;99156.63;5024213;59;21126;-91
2021/01/21 14:24:32;;;;;;;52.17;27.13;;;;;;;6.90;66.30;99153.77;5025494;58;21214;-91
2021/01/21 14:29:37;;;;;;;46.87;23.43;;;;;;;6.87;66.26;99157.16;5026403;58;21213;-91
2021/01/21 14:34:43;;;;;;;33.33;17.17;;;;;;;6.87;66.10;99163.73;5059095;57;21099;-92
2021/01/21 14:39:50;;;;;;;56.50;23.20;;;;;;;6.81;66.79;99153.23;5059862;58;21148;-91
2021/01/21 14:44:54;;;;;;;38.67;20.00;;;;;;;6.81;66.79;99153.23;5014158;57;21260;-87
2021/01/21 14:49:59;;;;;;;32.97;17.93;;;;;;;7.01;66.40;99160.77;4892786;59;21161;-85
2021/01/21 14:55:09;;;;;;;26.67;12.90;;;;;;;7.01;66.40;99160.77;5049882;57;21159;-84
2021/01/21 15:00:16;;;;;;;36.97;19.67;;;;;;;7.01;65.78;99162.92;5065688;57;21159;-85
2021/01/21 15:05:21;;;;;;;42.23;22.83;;;;;;;6.98;66.22;99157.08;5054994;57;21175;-84
2021/01/21 15:10:27;;;;;;;47.07;27.13;;;;;;;6.93;66.72;99164.03;5049214;58;21143;-85
2021/01/21 15:15:33;;;;;;;32.20;17.47;;;;;;;6.89;67.07;99163.09;5047201;58;21158;-85
2021/01/21 15:20:38;;;;;;;31.00;14.00;;;;;;;6.86;67.06;99162.06;5054854;58;21170;-85
2021/01/21 15:25:44;;;;;;;32.00;14.40;;;;;;;6.84;67.10;99170.55;5054296;57;21599;-87
2021/01/21 15:30:50;;;;;;;28.63;13.10;;;;;;;6.86;67.13;99181.77;5063447;58;21174;-86
2021/01/21 15:35:56;;;;;;;33.73;14.20;;;;;;;6.85;66.07;99168.27;5038806;58;21179;-86
2021/01/21 15:41:02;;;;;;;40.47;18.40;;;;;;;6.86;66.32;99185.23;5058482;58;21147;-85
2021/01/21 15:46:07;;;;;;;46.00;19.10;;;;;;;6.81;66.94;99171.63;5046242;58;21509;-85
2021/01/21 15:51:14;;;;;;;43.67;20.60;;;;;;;6.73;66.87;99166.17;5007500;59;21171;-86
2021/01/21 15:56:20;;;;;;;74.37;29.70;;;;;;;6.64;67.27;99173.03;5047568;58;21167;-86
2021/01/21 16:01:25;;;;;;;37.30;16.00;;;;;;;6.64;67.27;99173.03;5013484;59;21216;-86
2021/01/21 16:06:31;;;;;;;43.40;19.63;;;;;;;6.59;67.31;99179.13;5045642;58;21843;-86
2021/01/21 16:11:37;;;;;;;88.67;41.87;;;;;;;6.51;67.42;99175.01;5036638;58;21092;-86
2021/01/21 16:16:42;;;;;;;62.53;29.80;;;;;;;6.53;67.93;99178.34;5016817;58;21167;-85
2021/01/21 16:21:49;;;;;;;53.67;26.03;;;;;;;6.51;67.95;99186.83;5017103;59;21144;-86
2021/01/21 16:26:55;;;;;;;45.30;22.07;;;;;;;6.47;67.91;99172.75;5005977;59;21140;-85
2021/01/21 16:32:00;;;;;;;42.97;21.47;;;;;;;6.42;68.11;99174.42;5040993;58;21148;-85
2021/01/21 16:37:06;;;;;;;25.67;11.00;;;;;;;6.43;68.34;99177.41;5005890;59;21160;-86
2021/01/21 16:42:12;;;;;;;39.17;18.67;;;;;;;6.41;68.39;99186.41;5031835;58;21171;-85
2021/01/21 16:47:18;;;;;;;69.37;27.83;;;;;;;6.35;68.59;99187.24;5046462;57;21155;-85
2021/01/21 16:52:24;;;;;;;39.10;17.67;;;;;;;6.32;68.49;99182.23;5059145;57;21159;-86
2021/01/21 16:57:30;;;;;;;84.00;25.40;;;;;;;6.30;68.63;99170.19;5052641;58;21186;-85
2021/01/21 17:02:35;;;;;;;69.67;23.00;;;;;;;6.31;68.80;99171.38;5048562;58;21155;-85
2021/01/21 17:07:41;;;;;;;63.73;20.90;;;;;;;6.29;68.83;99177.70;5049932;58;21473;-85
2021/01/21 17:12:46;;;;;;;90.33;31.00;;;;;;;6.23;68.96;99194.81;5055270;58;21472;-85
2021/01/21 17:17:52;;;;;;;72.17;24.00;;;;;;;6.19;68.87;99185.98;5041892;57;21310;-85
2021/01/21 17:22:57;;;;;;;91.00;24.43;;;;;;;6.17;68.98;99185.27;5064618;58;21147;-85
2021/01/21 17:28:03;;;;;;;46.90;15.60;;;;;;;6.12;69.14;99176.44;5050608;58;21278;-86
2021/01/21 17:33:09;;;;;;;50.93;18.57;;;;;;;6.08;68.96;99186.02;5048768;57;21221;-86
2021/01/21 17:38:15;;;;;;;33.23;14.40;;;;;;;6.02;69.24;99174.22;5054272;58;21276;-86
2021/01/21 17:43:21;;;;;;;38.17;17.53;;;;;;;6.02;69.02;99183.88;5057308;58;21174;-86
2021/01/21 17:48:26;;;;;;;29.47;13.07;;;;;;;5.99;69.28;99181.02;5057449;57;21135;-86
2021/01/21 17:53:32;;;;;;;19.33;9.73;;;;;;;5.99;69.28;99182.33;5047898;58;21178;-86
2021/01/21 17:58:37;;;;;;;24.63;12.10;;;;;;;6.05;68.69;99181.02;5059079;58;21180;-86
2021/01/21 18:03:43;;;;;;;60.33;21.63;;;;;;;6.08;69.01;99186.02;4963611;59;21153;-86
2021/01/21 18:08:48;;;;;;;41.40;17.67;;;;;;;6.06;68.63;99179.58;5047436;58;21187;-86
2021/01/21 18:13:54;;;;;;;63.43;24.40;;;;;;;6.09;68.62;99178.50;5052063;58;21151;-86
2021/01/21 18:19:01;;;;;;;136.23;54.43;;;;;;;6.13;68.23;99181.21;5051910;57;21376;-86
2021/01/21 18:24:07;;;;;;;59.13;27.37;;;;;;;6.12;68.26;99181.69;5053053;58;21269;-85
2021/01/21 18:29:12;;;;;;;91.80;39.47;;;;;;;6.09;68.03;99175.41;5052544;58;21285;-86
2021/01/21 18:34:18;;;;;;;50.83;23.43;;;;;;;6.14;68.04;99165.82;5055542;58;21155;-86
2021/01/21 18:39:23;;;;;;;42.10;17.67;;;;;;;6.13;67.97;99166.78;5048339;58;21195;-86
2021/01/21 18:44:29;;;;;;;55.10;24.83;;;;;;;6.09;67.63;99171.47;5052953;57;21155;-86
2021/01/21 18:49:35;;;;;;;67.77;25.40;;;;;;;6.06;68.04;99174.80;5044910;58;21255;-85
2021/01/21 18:54:40;;;;;;;29.17;14.53;;;;;;;6.07;67.92;99172.06;5011061;58;21152;-86
2021/01/21 18:59:46;;;;;;;52.00;25.10;;;;;;;6.05;68.09;99177.91;5008192;58;21453;-86
2021/01/21 19:04:52;;;;;;;106.10;40.03;;;;;;;6.03;68.42;99169.80;5012715;58;21211;-86
2021/01/21 19:09:58;;;;;;;128.07;42.70;;;;;;;5.98;68.16;99169.69;4853598;59;21140;-86
2021/01/21 19:15:05;;;;;;;191.23;60.30;;;;;;;5.98;68.27;99168.84;4843763;61;21193;-86
2021/01/21 19:20:12;;;;;;;271.13;80.60;;;;;;;5.93;68.20;99165.30;4871565;59;21157;-87
2021/01/21 19:25:21;;;;;;;86.43;31.00;;;;;;;5.89;68.51;99159.94;5014714;59;21501;-86
2021/01/21 19:30:27;;;;;;;175.37;61.60;;;;;;;5.88;68.59;99151.70;4937851;60;21154;-86
2021/01/21 19:35:32;;;;;;;161.10;55.77;;;;;;;5.90;68.57;99154.20;4938824;60;21642;-87
2021/01/21 19:40:38;;;;;;;130.23;51.10;;;;;;;5.91;68.46;99155.41;4937895;58;21162;-87
2021/01/21 19:45:44;;;;;;;156.03;57.67;;;;;;;5.89;68.56;99150.75;5023047;58;21508;-86
2021/01/21 19:50:50;;;;;;;98.17;40.67;;;;;;;5.86;68.58;99150.13;5043450;58;21108;-87
2021/01/21 19:55:55;;;;;;;39.43;18.13;;;;;;;5.80;68.48;99146.22;5006555;57;1132260;-87
2021/01/21 20:01:02;;;;;;;46.27;19.83;;;;;;;5.78;68.51;99141.56;4913642;58;1136812;-87
2021/01/21 20:06:17;;;;;;;34.85;16.30;;;;;;;5.76;67.98;99142.16;4900419;58;1136804;-87
2021/01/21 20:11:24;;;;;;;39.70;18.50;;;;;;;5.73;68.54;99141.56;4919099;58;1136307;-88
2021/01/21 20:16:30;;;;;;;31.63;13.67;;;;;;;5.72;68.52;99136.80;4925280;58;1136688;-88
2021/01/21 20:21:36;;;;;;;30.73;13.50;;;;;;;5.76;68.45;99137.39;4912101;58;1136198;-88
2021/01/21 20:26:42;;;;;;;30.97;15.70;;;;;;;5.75;68.33;99140.49;5048545;57;1136342;-88
2021/01/21 20:31:48;;;;;;;52.90;21.47;;;;;;;5.73;68.48;99146.81;5013542;57;1136532;-88
2021/01/21 20:36:54;;;;;;;27.90;13.50;;;;;;;5.75;68.37;99129.16;5016882;57;1136300;-88
2021/01/21 20:41:59;;;;;;;42.47;20.67;;;;;;;5.73;68.49;99124.04;4998729;57;1136288;-88
2021/01/21 20:47:05;;;;;;;24.23;11.25;;;;;;;5.73;68.07;99127.14;5029145;57;1136829;-88
2021/01/21 20:52:11;;;;;;;22.32;10.08;;;;;;;5.74;68.13;99127.50;4990892;57;1136387;-88
2021/01/21 20:57:16;;;;;;;24.37;10.33;;;;;;;5.77;67.81;99132.03;4963105;58;1136384;-89
2021/01/21 21:02:22;;;;;;;22.33;9.83;;;;;;;5.77;67.97;99120.70;4954056;57;1137168;-88
2021/01/21 21:07:27;;;;;;;22.00;10.13;;;;;;;5.79;67.55;99122.73;4955284;57;1134265;-88
2021/01/21 21:12:34;;;;;;;22.67;10.23;;;;;;;5.83;67.39;99103.14;4959594;58;1136635;-88
2021/01/21 21:17:42;;;;;;;37.03;17.17;;;;;;;5.84;67.61;99105.64;4954562;58;1136501;-88
2021/01/21 21:22:48;;;;;;;34.17;14.13;;;;;;;5.84;67.76;99095.63;4953470;58;1136257;-87
2021/01/21 21:27:54;;;;;;;24.97;11.53;;;;;;;5.83;67.56;99101.34;4950253;57;1136319;-87
2021/01/21 21:32:59;;;;;;;26.15;11.20;;;;;;;5.85;67.43;99094.19;4957536;57;1136261;-87
2021/01/21 21:38:07;;;;;;;30.30;14.17;;;;;;;5.86;67.42;99106.36;4962299;57;1145937;-87
2021/01/21 21:43:13;;;;;;;66.00;29.75;;;;;;;5.87;67.70;99101.94;4967204;58;1136241;-89
2021/01/21 21:48:18;;;;;;;49.27;20.80;;;;;;;5.86;67.37;99097.17;4944176;57;1136227;-88
2021/01/21 21:53:24;;;;;;;77.17;30.43;;;;;;;5.87;67.65;99098.84;4975121;58;1136126;-87
2021/01/21 21:58:30;;;;;;;35.23;15.28;;;;;;;5.93;67.12;99085.75;5009957;57;1136095;-86
2021/01/21 22:03:35;;;;;;;60.00;23.53;;;;;;;5.95;66.97;99086.45;5005741;57;1136240;-87
2021/01/21 22:08:41;;;;;;;33.10;12.83;;;;;;;6.00;66.40;99100.85;5055082;57;1136184;-87
2021/01/21 22:13:47;;;;;;;82.20;30.72;;;;;;;6.04;65.72;99094.05;4980934;57;1136325;-86
2021/01/21 22:18:53;;;;;;;42.47;15.87;;;;;;;6.09;66.69;99090.58;5026076;57;1136901;-87
2021/01/21 22:23:58;;;;;;;31.20;12.93;;;;;;;6.16;66.34;99089.09;4949858;58;1136338;-87
2021/01/21 22:29:04;;;;;;;16.10;7.00;;;;;;;6.17;65.75;99092.91;4939978;58;1136251;-87
2021/01/21 22:34:09;;;;;;;21.90;9.38;;;;;;;6.18;65.95;99081.94;5007739;57;1134125;-87
2021/01/21 22:39:15;;;;;;;22.97;9.33;;;;;;;6.15;66.07;99089.58;5000534;57;1134351;-87
2021/01/21 22:44:20;;;;;;;23.03;9.50;;;;;;;6.14;65.37;99082.66;5012316;57;1134135;-87
2021/01/21 22:49:26;;;;;;;27.17;11.47;;;;;;;6.16;65.79;99075.98;5008836;57;1134162;-87
2021/01/21 22:54:31;;;;;;;18.73;8.73;;;;;;;6.18;65.94;99069.64;5008915;57;1136225;-87
2021/01/21 22:59:37;;;;;;;21.17;9.73;;;;;;;6.21;65.77;99067.25;5034224;57;1134379;-87
2021/01/21 23:04:43;;;;;;;17.97;7.80;;;;;;;6.22;65.83;99069.75;5006686;57;1134591;-87
2021/01/21 23:09:48;;;;;;;21.80;9.93;;;;;;;6.23;65.11;99060.08;5067700;57;1131916;-87
2021/01/21 23:14:54;;;;;;;27.80;12.50;;;;;;;6.22;65.49;99054.48;5017540;57;1134082;-86
2021/01/21 23:20:00;;;;;;;39.20;16.30;;;;;;;6.26;65.67;99048.02;5028676;57;1136654;-87
2021/01/21 23:25:06;;;;;;;19.52;8.83;;;;;;;6.27;65.07;99039.98;5014752;57;1136514;-87
2021/01/21 23:30:13;;;;;;;20.27;8.58;;;;;;;6.28;65.40;99032.47;5006639;57;1135165;-88
2021/01/21 23:35:19;;;;;;;17.10;8.17;;;;;;;6.30;65.09;99029.72;5031485;58;1134117;-88
2021/01/21 23:40:24;;;;;;;24.00;10.60;;;;;;;6.31;64.67;99033.53;5011915;57;1134374;-87
2021/01/21 23:45:30;;;;;;;27.33;12.70;;;;;;;6.30;64.98;99032.34;5011689;57;1136697;-87
2021/01/21 23:50:35;;;;;;;29.80;13.63;;;;;;;6.24;65.30;99030.25;5036701;57;1136139;-87
2021/01/21 23:55:41;;;;;;;31.87;13.33;;;;;;;6.19;65.54;99016.19;5010590;58;1136257;-87
